Aérodrome :
LOGIN :

S'inscrire | Disclaimer

   EN    FR    IT 

 










Légende :    VFR   VFR Marginal   IFR   IFR Intensif   IFR Très Intensif
Visi : 
Plafond : 
>= 8 km
>= 3000ft
5 à 8 km
1000 à 3000 ft
1500m à 5 km
500 à 1000 ft
800 à 1500m
200 à 500 ft
< 800m
< 200 ft
Symboles :   Orages  Brouillard  Fortes neiges  Fortes précipitations  Vent > 20 kt
SIGMETs :   Divers  Orages  Givrage  Turbulence  Onde Orograph.  Cendres Volcan.






- Altitude de l'aérodrome : 55 ft
- Code IATA : DSA


EGCN - Robin Hood Doncaster Sheffield

DERNIER METAR :
  • 022150Z 09004KT CAVOK 16/07 Q1015

METARs EXPIRÉS :
  • 022120Z VRB03KT CAVOK 16/08 Q1015
  • 022050Z VRB03KT CAVOK 17/08 Q1015
  • 022020Z 08005KT CAVOK 18/08 Q1015
  • 021950Z 07005KT 040V100 CAVOK 18/08 Q1015
  • 021920Z 07005KT 030V110 CAVOK 20/08 Q1015

TAF TAF EGCN
Valide du 02 à 18h jusqu'au 03 à 18h UTC


021659Z 0218/0318 05005KT 9999 FEW045
TEMPO 0300/0316 6000 RA BKN012
PROB30
TEMPO 0300/0315 4000 SHRA BKN008
BECMG 0314/0317 35012KT



MET'MAP, la Météo Aéronautique d'un coup d'oeil ! - Copyright ORBIFLY Décembre 2007 - Disclaimer

ORBIFLY MET'MAP TEAM :

Programmation & Développement : Alexandra Zaïnal
Sur une idée originale de : Baudouin d'Aumeries
Assistance à la programmation : Marc-Olivier Méhu
Soutien technique & logistique : Manuel Goepfert

Contact : metmap@orbifly.com




SOURCES & CREDITS :

   NOAA